createdAt,value
2023-04-15T00:00:05.133Z,60.04
2023-04-15T00:02:41.531Z,60.53
2023-04-15T00:05:10.976Z,60.52
2023-04-15T00:07:40.450Z,60.72
2023-04-15T00:10:10.298Z,60.31
2023-04-15T00:12:38.739Z,60.23
2023-04-15T00:15:10.570Z,60.47
2023-04-15T00:17:39.912Z,60.94
2023-04-15T00:20:09.390Z,60.48
2023-04-15T00:22:37.727Z,60.73
2023-04-15T00:25:06.878Z,61.74
2023-04-15T00:27:35.331Z,60.90
2023-04-15T00:30:04.189Z,61.30
2023-04-15T00:32:34.272Z,61.83
2023-04-15T00:35:03.234Z,61.40
2023-04-15T00:37:32.059Z,61.87
2023-04-15T00:40:00.379Z,62.22
2023-04-15T00:42:29.792Z,61.70
2023-04-15T00:44:58.386Z,61.80
2023-04-15T00:47:28.729Z,62.00
2023-04-15T00:49:59.257Z,61.81
2023-04-15T00:52:27.682Z,61.44
2023-04-15T00:54:56.464Z,62.23
2023-04-15T00:57:24.974Z,61.42
2023-04-15T00:59:54.322Z,61.49
2023-04-15T01:02:23.276Z,61.40
2023-04-15T01:04:52.163Z,61.79
2023-04-15T01:07:22.029Z,62.08
2023-04-15T01:09:50.429Z,62.25
2023-04-15T01:12:19.431Z,61.51
2023-04-15T01:14:48.067Z,61.94
2023-04-15T01:17:16.569Z,62.17
2023-04-15T01:19:44.916Z,62.18
2023-04-15T01:22:13.981Z,61.39
2023-04-15T01:24:52.243Z,61.97
2023-04-15T01:27:22.672Z,61.62
2023-04-15T01:29:51.043Z,61.70
2023-04-15T01:32:20.009Z,61.36
2023-04-15T01:34:48.321Z,61.22
2023-04-15T01:37:16.697Z,61.47
2023-04-15T01:39:45.511Z,61.29
2023-04-15T01:42:13.952Z,61.41
2023-04-15T01:44:43.686Z,60.95
2023-04-15T01:47:14.257Z,61.61
2023-04-15T01:49:43.384Z,61.49
2023-04-15T01:52:11.786Z,61.02
2023-04-15T01:54:42.586Z,61.04
2023-04-15T01:57:11.086Z,60.59
2023-04-15T01:59:39.540Z,61.28
2023-04-15T02:02:09.381Z,61.50
2023-04-15T02:04:38.203Z,61.88
2023-04-15T02:07:07.165Z,61.16
2023-04-15T02:09:37.233Z,60.72
2023-04-15T02:12:05.914Z,61.01
2023-04-15T02:14:34.357Z,60.55
2023-04-15T02:17:08.403Z,61.08
2023-04-15T02:19:39.395Z,61.48
2023-04-15T02:22:09.396Z,61.31
2023-04-15T02:24:38.012Z,60.79
2023-04-15T02:27:06.345Z,60.90
2023-04-15T02:29:34.870Z,61.90
2023-04-15T02:32:03.386Z,61.80
2023-04-15T02:34:33.700Z,60.69
2023-04-15T02:37:04.005Z,61.75
2023-04-15T02:39:32.814Z,61.83
2023-04-15T02:42:01.262Z,61.51
2023-04-15T02:44:29.815Z,62.10
2023-04-15T02:47:01.007Z,62.33
2023-04-15T02:49:31.026Z,62.52
2023-04-15T02:52:00.176Z,62.18
2023-04-15T02:54:30.020Z,62.33
2023-04-15T02:56:58.784Z,62.64
2023-04-15T02:59:27.158Z,63.06
2023-04-15T03:01:56.705Z,62.35
2023-04-15T03:04:25.245Z,62.60
2023-04-15T03:06:53.769Z,62.58
2023-04-15T03:09:22.194Z,62.79
2023-04-15T03:11:53.535Z,63.16
2023-04-15T03:14:22.561Z,64.09
2023-04-15T03:16:52.031Z,64.32
2023-04-15T03:19:20.633Z,64.33
2023-04-15T03:21:48.958Z,64.08
2023-04-15T03:24:18.150Z,64.55
2023-04-15T03:26:46.787Z,65.14
2023-04-15T03:29:19.516Z,64.73
2023-04-15T03:31:47.947Z,64.44
2023-04-15T03:34:16.465Z,64.67
2023-04-15T03:36:44.866Z,65.19
2023-04-15T03:39:13.301Z,65.23
2023-04-15T03:41:41.706Z,65.34
2023-04-15T03:44:10.068Z,65.34
2023-04-15T03:46:39.871Z,65.38
2023-04-15T03:49:09.019Z,65.53
2023-04-15T03:51:37.349Z,65.42
2023-04-15T03:54:05.830Z,65.78
2023-04-15T03:56:34.344Z,66.44
2023-04-15T03:59:02.985Z,66.73
2023-04-15T04:01:31.612Z,66.72
2023-04-15T04:04:01.532Z,66.95
2023-04-15T04:06:30.123Z,66.73
2023-04-15T04:08:58.451Z,68.27
2023-04-15T04:11:28.266Z,68.44
2023-04-15T04:13:56.650Z,66.74
2023-04-15T04:16:25.301Z,65.10
2023-04-15T04:18:53.812Z,64.12
2023-04-15T04:21:23.506Z,65.01
2023-04-15T04:23:52.393Z,61.20
2023-04-15T04:26:20.839Z,64.50
2023-04-15T04:28:49.295Z,64.22
2023-04-15T04:31:17.652Z,62.83
2023-04-15T04:33:46.401Z,62.92
2023-04-15T04:36:14.878Z,64.02
2023-04-15T04:38:44.615Z,64.00
2023-04-15T04:41:13.011Z,64.26
2023-04-15T04:43:41.376Z,63.96
2023-04-15T04:46:10.212Z,64.25
2023-04-15T04:48:39.410Z,64.20
2023-04-15T04:51:07.877Z,64.68
2023-04-15T04:53:37.479Z,65.45
2023-04-15T04:56:07.743Z,66.39
2023-04-15T04:58:36.259Z,66.10
2023-04-15T05:01:04.851Z,66.83
2023-04-15T05:03:33.386Z,67.10
2023-04-15T05:06:03.146Z,66.99
2023-04-15T05:08:31.531Z,66.62
2023-04-15T05:10:59.933Z,66.20
2023-04-15T05:13:30.086Z,66.43
2023-04-15T05:15:58.585Z,65.85
2023-04-15T05:18:27.066Z,66.28
2023-04-15T05:20:55.460Z,65.32
2023-04-15T05:23:23.898Z,65.77
2023-04-15T05:25:52.261Z,65.22
2023-04-15T05:28:20.638Z,65.94
2023-04-15T05:30:50.555Z,65.98
2023-04-15T05:33:19.171Z,66.50
2023-04-15T05:35:47.486Z,66.73
2023-04-15T05:38:16.263Z,67.12
2023-04-15T05:40:44.686Z,67.28
2023-04-15T05:43:13.153Z,67.39
2023-04-15T05:45:41.623Z,67.29
2023-04-15T05:48:11.368Z,66.32
2023-04-15T05:50:42.782Z,67.16
2023-04-15T05:53:11.750Z,67.40
2023-04-15T05:55:40.122Z,67.25
2023-04-15T05:58:08.505Z,67.08
2023-04-15T06:00:36.894Z,67.26
2023-04-15T06:03:06.397Z,67.85
2023-04-15T06:05:36.255Z,67.60
2023-04-15T06:08:04.736Z,67.65
2023-04-15T06:10:36.657Z,67.38
2023-04-15T06:13:05.262Z,66.94
2023-04-15T06:15:33.784Z,66.85
2023-04-15T06:18:02.213Z,66.97
2023-04-15T06:20:30.923Z,65.98
2023-04-15T06:23:01.168Z,65.10
2023-04-15T06:25:29.597Z,64.64
2023-04-15T06:27:57.969Z,64.95
2023-04-15T06:30:26.418Z,64.77
2023-04-15T06:32:56.274Z,64.07
2023-04-15T06:35:24.818Z,63.48
2023-04-15T06:37:53.225Z,63.37
2023-04-15T06:40:23.004Z,63.75
2023-04-15T06:42:51.737Z,63.38
2023-04-15T06:45:20.188Z,62.56
2023-04-15T06:47:48.711Z,61.98
2023-04-15T06:50:17.561Z,62.27
2023-04-15T06:52:46.146Z,61.95
2023-04-15T06:55:14.865Z,61.55
2023-04-15T06:57:44.695Z,61.34
2023-04-15T07:00:14.855Z,61.42
2023-04-15T07:02:43.496Z,61.43
2023-04-15T07:05:12.808Z,61.09
2023-04-15T07:07:41.291Z,62.13
2023-04-15T07:10:12.005Z,62.76
2023-04-15T07:12:40.585Z,61.78
2023-04-15T07:15:11.551Z,61.63
2023-04-15T07:17:39.983Z,61.12
2023-04-15T07:20:10.028Z,61.23
2023-04-15T07:22:38.411Z,61.38
2023-04-15T07:25:09.008Z,60.78
2023-04-15T07:27:37.400Z,61.09
2023-04-15T07:30:07.115Z,60.85
2023-04-15T07:32:37.476Z,60.28
2023-04-15T07:35:06.566Z,61.54
2023-04-15T07:37:35.009Z,61.33
2023-04-15T07:40:04.792Z,61.45
2023-04-15T07:42:33.206Z,62.50
2023-04-15T07:45:01.705Z,61.30
2023-04-15T07:47:30.185Z,61.86
2023-04-15T07:50:00.238Z,61.14
2023-04-15T07:52:28.715Z,61.10
2023-04-15T07:54:57.116Z,61.74
2023-04-15T07:57:25.609Z,61.24
2023-04-15T07:59:54.045Z,60.77
2023-04-15T08:02:22.565Z,60.30
2023-04-15T08:04:51.210Z,60.39
2023-04-15T08:07:21.278Z,60.12
2023-04-15T08:09:49.700Z,60.60
2023-04-15T08:12:18.114Z,59.74
2023-04-15T08:14:46.743Z,60.15
2023-04-15T08:17:15.183Z,59.66
2023-04-15T08:19:43.823Z,60.54
2023-04-15T08:22:15.868Z,59.89
2023-04-15T08:24:48.037Z,58.65
2023-04-15T08:27:16.456Z,57.76
2023-04-15T08:29:45.672Z,57.20
2023-04-15T08:32:14.153Z,57.26
2023-04-15T08:34:42.529Z,55.48
2023-04-15T08:37:11.547Z,54.69
2023-04-15T08:39:41.137Z,54.32
2023-04-15T08:42:17.969Z,55.30
2023-04-15T08:44:47.802Z,52.68
2023-04-15T08:47:17.433Z,52.35
2023-04-15T08:49:46.129Z,52.58
2023-04-15T08:52:14.564Z,51.91
2023-04-15T08:54:43.588Z,51.27
2023-04-15T08:57:13.790Z,51.37
2023-04-15T08:59:43.966Z,50.80
2023-04-15T09:02:13.334Z,51.46
2023-04-15T09:04:42.283Z,50.75
2023-04-15T09:07:10.939Z,51.21
2023-04-15T09:09:40.347Z,51.73
2023-04-15T09:12:09.487Z,51.69
2023-04-15T09:14:41.082Z,51.82
2023-04-15T09:17:12.549Z,51.55
2023-04-15T09:19:40.950Z,51.47
2023-04-15T09:22:09.437Z,50.74
2023-04-15T09:24:41.058Z,50.27
2023-04-15T09:27:09.737Z,50.10
2023-04-15T09:29:39.579Z,50.63
2023-04-15T09:32:16.846Z,50.24
2023-04-15T09:34:45.930Z,50.90
2023-04-15T09:37:29.108Z,51.48
2023-04-15T09:40:00.564Z,50.48
2023-04-15T09:42:28.984Z,51.39
2023-04-15T09:45:10.585Z,50.48
2023-04-15T09:47:39.174Z,50.23
2023-04-15T09:50:08.649Z,50.58
2023-04-15T09:52:44.326Z,51.03
2023-04-15T09:55:13.796Z,50.75
2023-04-15T09:57:44.416Z,51.13
2023-04-15T10:00:15.910Z,51.20
2023-04-15T10:02:44.851Z,51.95
2023-04-15T10:05:16.547Z,51.94
2023-04-15T10:07:45.864Z,52.09
2023-04-15T10:10:16.263Z,51.57
2023-04-15T10:12:46.622Z,52.12
2023-04-15T10:15:18.376Z,52.30
2023-04-15T10:17:47.061Z,51.85
2023-04-15T10:20:18.918Z,52.75
2023-04-15T10:22:48.427Z,51.00
2023-04-15T10:25:17.314Z,50.55
2023-04-15T10:27:46.552Z,51.01
2023-04-15T10:30:16.696Z,51.50
2023-04-15T10:32:46.200Z,50.75
2023-04-15T10:35:15.589Z,50.84
2023-04-15T10:37:44.004Z,50.77
2023-04-15T10:40:32.691Z,50.52
2023-04-15T10:43:02.749Z,51.08
2023-04-15T10:45:35.567Z,50.24
2023-04-15T10:48:08.092Z,50.20
2023-04-15T10:50:39.426Z,50.46
2023-04-15T10:53:11.995Z,50.75
2023-04-15T10:55:40.492Z,51.08
2023-04-15T10:58:11.290Z,51.17
2023-04-15T11:00:41.225Z,51.19
2023-04-15T11:03:12.104Z,51.49
2023-04-15T11:05:53.970Z,52.15
2023-04-15T11:08:55.356Z,53.18
2023-04-15T11:11:24.057Z,53.98
2023-04-15T11:13:54.266Z,53.84
2023-04-15T11:16:24.129Z,54.41
2023-04-15T11:18:56.911Z,55.48
2023-04-15T11:21:28.207Z,55.81
2023-04-15T11:23:56.687Z,55.99
2023-04-15T11:26:28.399Z,56.69
2023-04-15T11:28:57.052Z,58.21
2023-04-15T11:31:29.763Z,59.11
2023-04-15T11:34:01.686Z,59.87
2023-04-15T11:36:32.517Z,61.93
2023-04-15T11:39:01.683Z,62.63
2023-04-15T11:41:30.138Z,62.39
2023-04-15T11:43:58.588Z,63.65
2023-04-15T11:46:32.603Z,64.27
2023-04-15T11:49:01.336Z,65.49
2023-04-15T11:51:34.872Z,65.79
2023-04-15T11:54:03.655Z,66.10
2023-04-15T11:56:33.007Z,66.61
2023-04-15T11:59:02.085Z,66.75
2023-04-15T12:01:36.535Z,66.24
2023-04-15T12:04:13.449Z,66.48
2023-04-15T12:06:42.182Z,67.77
2023-04-15T12:09:13.183Z,68.30
2023-04-15T12:11:48.492Z,69.62
2023-04-15T12:14:26.900Z,69.85
2023-04-15T12:17:00.392Z,69.31
2023-04-15T12:19:32.541Z,69.38
2023-04-15T12:22:03.386Z,69.83
2023-04-15T12:24:34.524Z,70.12
2023-04-15T12:27:07.941Z,71.17
2023-04-15T12:29:38.649Z,71.85
2023-04-15T12:32:11.307Z,71.61
2023-04-15T12:34:42.254Z,72.43
2023-04-15T12:37:13.268Z,72.53
2023-04-15T12:39:44.157Z,72.54
2023-04-15T12:42:13.130Z,72.37
2023-04-15T12:44:41.699Z,73.32
2023-04-15T12:47:12.870Z,71.24
2023-04-15T12:49:41.648Z,72.05
2023-04-15T12:52:10.107Z,72.25
2023-04-15T12:54:38.568Z,71.82
2023-04-15T12:57:07.871Z,69.67
2023-04-15T12:59:36.509Z,70.40
2023-04-15T13:02:05.640Z,71.06
2023-04-15T13:04:35.578Z,70.97
2023-04-15T13:07:04.237Z,71.30
2023-04-15T13:09:32.647Z,70.34
2023-04-15T13:12:01.358Z,70.52
2023-04-15T13:14:29.747Z,68.79
2023-04-15T13:16:58.203Z,69.29
2023-04-15T13:19:27.045Z,68.81
2023-04-15T13:21:57.005Z,70.45
2023-04-15T13:24:25.765Z,68.32
2023-04-15T13:26:54.184Z,69.39
2023-04-15T13:29:22.751Z,68.71
2023-04-15T13:31:51.219Z,68.83
2023-04-15T13:34:19.566Z,68.72
2023-04-15T13:36:48.244Z,67.52
2023-04-15T13:39:17.979Z,67.20
2023-04-15T13:41:46.375Z,67.58
2023-04-15T13:44:14.757Z,65.74
2023-04-15T13:46:43.251Z,67.17
2023-04-15T13:49:11.689Z,67.54
2023-04-15T13:51:40.638Z,67.62
2023-04-15T13:54:09.023Z,67.39
2023-04-15T13:56:39.425Z,67.47
2023-04-15T13:59:08.762Z,67.38
2023-04-15T14:01:38.365Z,67.68
2023-04-15T14:04:07.344Z,67.53
2023-04-15T14:06:35.992Z,67.26
2023-04-15T14:09:04.747Z,66.54
2023-04-15T14:11:35.448Z,66.63
2023-04-15T14:14:05.405Z,67.83
2023-04-15T14:16:34.500Z,67.45
2023-04-15T14:19:03.988Z,68.63
2023-04-15T14:21:33.735Z,68.87
2023-04-15T14:24:02.652Z,68.88
2023-04-15T14:26:31.020Z,68.71
2023-04-15T14:28:59.349Z,68.16
2023-04-15T14:31:29.161Z,67.41
2023-04-15T14:33:57.525Z,67.79
2023-04-15T14:36:26.057Z,67.41
2023-04-15T14:38:54.373Z,68.67
2023-04-15T14:41:23.391Z,67.06
2023-04-15T14:43:51.789Z,68.58
2023-04-15T14:46:20.312Z,69.29
2023-04-15T14:48:50.412Z,69.05
2023-04-15T14:51:18.851Z,69.36
2023-04-15T14:53:47.404Z,70.68
2023-04-15T14:56:15.812Z,69.80
2023-04-15T14:58:44.186Z,70.31
2023-04-15T15:01:12.602Z,69.63
2023-04-15T15:03:41.315Z,69.08
2023-04-15T15:06:11.195Z,70.23
2023-04-15T15:08:39.628Z,69.82
2023-04-15T15:11:07.979Z,69.64
2023-04-15T15:13:36.640Z,70.89
2023-04-15T15:16:05.602Z,71.52
2023-04-15T15:18:34.141Z,70.24
2023-04-15T15:21:02.478Z,71.01
2023-04-15T15:23:32.182Z,71.14
2023-04-15T15:26:00.632Z,71.91
2023-04-15T15:28:29.040Z,71.23
2023-04-15T15:30:57.530Z,72.54
2023-04-15T15:33:26.327Z,72.83
2023-04-15T15:35:55.626Z,71.20
2023-04-15T15:38:24.000Z,72.05
2023-04-15T15:40:53.782Z,72.17
2023-04-15T15:43:22.180Z,71.58
2023-04-15T15:45:51.781Z,72.67
2023-04-15T15:48:20.369Z,72.65
2023-04-15T15:50:48.721Z,73.06
2023-04-15T15:53:20.808Z,72.65
2023-04-15T15:55:49.316Z,73.32
2023-04-15T15:58:19.298Z,74.29
2023-04-15T16:00:47.756Z,74.03
2023-04-15T16:03:16.955Z,73.30
2023-04-15T16:05:46.085Z,72.83
2023-04-15T16:08:14.546Z,74.04
2023-04-15T16:10:42.918Z,73.98
2023-04-15T16:13:11.440Z,74.36
2023-04-15T16:15:41.198Z,73.18
2023-04-15T16:18:09.515Z,73.33
2023-04-15T16:20:39.382Z,74.74
2023-04-15T16:23:13.498Z,74.41
2023-04-15T16:25:44.618Z,74.38
2023-04-15T16:28:25.628Z,73.66
2023-04-15T16:30:57.280Z,74.28
2023-04-15T16:33:25.760Z,75.29
2023-04-15T16:35:54.134Z,74.86
2023-04-15T16:38:22.521Z,75.61
2023-04-15T16:40:51.564Z,75.54
2023-04-15T16:43:20.123Z,75.12
2023-04-15T16:45:51.429Z,76.00
2023-04-15T16:48:22.215Z,76.05
2023-04-15T16:50:50.703Z,75.56
2023-04-15T16:53:19.288Z,75.14
2023-04-15T16:55:47.627Z,76.66
2023-04-15T16:58:15.946Z,75.39
2023-04-15T17:00:44.392Z,76.25
2023-04-15T17:03:12.875Z,76.11
2023-04-15T17:05:43.042Z,76.49
2023-04-15T17:08:11.334Z,74.92
2023-04-15T17:10:39.810Z,75.17
2023-04-15T17:13:08.470Z,75.35
2023-04-15T17:15:37.015Z,75.55
2023-04-15T17:18:06.389Z,75.66
2023-04-15T17:20:34.855Z,75.08
2023-04-15T17:23:05.518Z,74.34
2023-04-15T17:25:34.033Z,74.33
2023-04-15T17:28:02.518Z,75.07
2023-04-15T17:30:30.963Z,75.03
2023-04-15T17:32:59.523Z,75.41
2023-04-15T17:35:27.949Z,75.35
2023-04-15T17:37:56.290Z,73.82
2023-04-15T17:40:26.083Z,73.77
2023-04-15T17:42:54.826Z,73.97
2023-04-15T17:45:23.199Z,75.23
2023-04-15T17:47:51.629Z,74.75
2023-04-15T17:50:20.228Z,75.74
2023-04-15T17:52:48.711Z,75.58
2023-04-15T17:55:17.197Z,76.32
2023-04-15T17:57:48.818Z,76.61
2023-04-15T18:00:18.278Z,76.51
2023-04-15T18:02:48.703Z,76.51
2023-04-15T18:05:18.836Z,76.45
2023-04-15T18:07:47.473Z,76.26
2023-04-15T18:10:16.197Z,76.57
2023-04-15T18:12:44.604Z,76.43
2023-04-15T18:15:15.661Z,77.37
2023-04-15T18:17:44.125Z,77.51
2023-04-15T18:20:13.486Z,78.32
2023-04-15T18:22:41.935Z,77.83
2023-04-15T18:25:11.294Z,77.17
2023-04-15T18:27:40.263Z,78.24
2023-04-15T18:30:10.932Z,78.52
2023-04-15T18:32:40.851Z,78.11
2023-04-15T18:35:10.363Z,77.58
2023-04-15T18:37:39.014Z,77.67
2023-04-15T18:40:09.780Z,77.81
2023-04-15T18:42:38.531Z,77.56
2023-04-15T18:45:08.372Z,78.96
2023-04-15T18:47:36.765Z,77.75
2023-04-15T18:50:08.856Z,77.75
2023-04-15T18:52:37.275Z,78.27
2023-04-15T18:55:06.641Z,77.28
2023-04-15T18:57:36.298Z,78.08
2023-04-15T19:00:07.799Z,77.40
2023-04-15T19:02:36.195Z,78.19
2023-04-15T19:05:06.951Z,77.27
2023-04-15T19:07:35.699Z,77.44
2023-04-15T19:10:05.139Z,77.27
2023-04-15T19:12:33.657Z,76.37
2023-04-15T19:15:02.086Z,76.51
2023-04-15T19:17:31.426Z,75.70
2023-04-15T19:19:59.896Z,76.33
2023-04-15T19:22:31.274Z,76.55
2023-04-15T19:24:59.761Z,75.72
2023-04-15T19:27:28.735Z,75.77
2023-04-15T19:29:57.133Z,75.72
2023-04-15T19:32:25.673Z,75.16
2023-04-15T19:34:54.102Z,74.87
2023-04-15T19:37:22.525Z,75.08
2023-04-15T19:39:52.258Z,74.47
2023-04-15T19:42:20.711Z,74.26
2023-04-15T19:44:49.236Z,74.53
2023-04-15T19:47:17.831Z,74.92
2023-04-15T19:49:46.239Z,75.09
2023-04-15T19:52:14.976Z,74.52
2023-04-15T19:54:43.426Z,74.62
2023-04-15T19:57:13.300Z,74.21
2023-04-15T19:59:41.809Z,73.80
2023-04-15T20:02:10.402Z,74.31
2023-04-15T20:04:38.883Z,74.42
2023-04-15T20:07:07.300Z,73.56
2023-04-15T20:09:35.630Z,74.85
2023-04-15T20:12:46.928Z,74.14
2023-04-15T20:14:53.903Z,73.74
2023-04-15T20:17:22.403Z,74.16
2023-04-15T20:19:50.787Z,74.09
2023-04-15T20:22:19.208Z,72.91
2023-04-15T20:24:47.535Z,73.04
2023-04-15T20:27:16.015Z,73.82
2023-04-15T20:29:44.449Z,74.20
2023-04-15T20:32:14.272Z,73.69
2023-04-15T20:34:42.789Z,74.22
2023-04-15T20:37:12.580Z,73.81
2023-04-15T20:39:42.424Z,73.06
2023-04-15T20:42:11.326Z,72.83
2023-04-15T20:44:39.854Z,73.20
2023-04-15T20:47:08.622Z,73.49
2023-04-15T20:49:39.856Z,73.64
2023-04-15T20:52:09.767Z,72.86
2023-04-15T20:54:38.223Z,72.79
2023-04-15T20:57:06.583Z,73.43
2023-04-15T20:59:35.963Z,73.52
2023-04-15T21:02:04.463Z,72.54
2023-04-15T21:04:32.950Z,72.54
2023-04-15T21:07:02.784Z,72.45
2023-04-15T21:09:31.293Z,72.18
2023-04-15T21:12:01.124Z,72.35
2023-04-15T21:14:30.588Z,71.93
2023-04-15T21:16:59.233Z,71.63
2023-04-15T21:19:27.585Z,72.17
2023-04-15T21:21:56.063Z,72.22
2023-04-15T21:24:25.870Z,71.85
2023-04-15T21:26:54.380Z,71.75
2023-04-15T21:29:22.742Z,72.77
2023-04-15T21:31:51.316Z,72.47
2023-04-15T21:34:19.894Z,71.36
2023-04-15T21:36:48.376Z,72.13
2023-04-15T21:39:17.107Z,72.57
2023-04-15T21:41:48.461Z,72.67
2023-04-15T21:44:17.621Z,72.59
2023-04-15T21:46:46.408Z,72.48
2023-04-15T21:49:14.939Z,72.31
2023-04-15T21:51:43.340Z,72.92
2023-04-15T21:54:11.702Z,72.45
2023-04-15T21:56:40.035Z,72.57
2023-04-15T21:59:09.851Z,72.38
2023-04-15T22:01:38.367Z,72.84
2023-04-15T22:04:07.569Z,72.35
2023-04-15T22:06:36.287Z,73.09
2023-04-15T22:09:04.855Z,71.90
2023-04-15T22:11:33.230Z,72.25
2023-04-15T22:14:02.247Z,71.88
2023-04-15T22:16:31.985Z,71.54
2023-04-15T22:19:00.352Z,71.83
2023-04-15T22:21:28.855Z,72.42
2023-04-15T22:24:33.282Z,72.57
2023-04-15T22:26:45.798Z,72.59
2023-04-15T22:29:14.211Z,71.79
2023-04-15T22:31:44.253Z,72.25
2023-04-15T22:34:14.794Z,72.93
2023-04-15T22:36:43.306Z,71.59
2023-04-15T22:39:11.620Z,71.79
2023-04-15T22:41:39.970Z,72.13
2023-04-15T22:44:08.390Z,72.52
2023-04-15T22:46:36.879Z,72.30
2023-04-15T22:49:09.877Z,71.15
2023-04-15T22:51:38.465Z,71.91
2023-04-15T22:54:06.837Z,71.35
2023-04-15T22:56:35.346Z,72.35
2023-04-15T22:59:03.674Z,72.66
2023-04-15T23:01:32.400Z,71.49
2023-04-15T23:04:07.655Z,71.68
2023-04-15T23:06:50.843Z,70.92
2023-04-15T23:09:19.196Z,71.07
2023-04-15T23:11:48.393Z,70.71
2023-04-15T23:14:16.754Z,71.18
2023-04-15T23:16:45.578Z,71.87
2023-04-15T23:19:13.932Z,72.00
2023-04-15T23:21:42.269Z,71.32
2023-04-15T23:24:12.802Z,72.67
2023-04-15T23:26:41.259Z,71.68
2023-04-15T23:29:10.204Z,70.57
2023-04-15T23:31:38.856Z,71.36
2023-04-15T23:34:07.246Z,71.41
2023-04-15T23:36:35.615Z,72.00
2023-04-15T23:39:03.970Z,72.67
2023-04-15T23:41:33.773Z,72.24
2023-04-15T23:44:02.188Z,71.30
2023-04-15T23:46:31.036Z,71.71
2023-04-15T23:48:59.435Z,72.07
2023-04-15T23:51:27.862Z,71.15
2023-04-15T23:53:56.188Z,71.76
2023-04-15T23:56:24.578Z,71.70
2023-04-15T23:58:54.281Z,71.63
